Time;durP1;ratioP1;P1;durP2;ratioP2;P2;SDS_P1;SDS_P2;PMS_P1;PMS_P2;Temp;Humidity;BMP_temperature;BMP_pressure;BME280_temperature;BME280_humidity;BME280_pressure;Samples;Min_cycle;Max_cycle;Signal;HPM_P1;HPM_P2
2022/06/04 00:00:21;;;;;;;;;;;15.00;99.90;;;;;;4893707;29;19918;-58
2022/06/04 00:02:47;;;;;;;;;;;14.90;99.90;;;;;;4892252;29;19967;-58
2022/06/04 00:05:19;;;;;;;;;;;14.90;99.90;;;;;;4891153;29;19928;-57
2022/06/04 00:07:45;;;;;;;;;;;14.80;99.90;;;;;;4893484;29;19946;-58
2022/06/04 00:15:41;;;;;;;;;;;14.70;99.90;;;;;;4894027;29;20030;-57
2022/06/04 00:18:06;;;;;;;;;;;14.70;99.90;;;;;;4895403;29;19954;-57
2022/06/04 00:20:32;;;;;;;;;;;14.60;99.90;;;;;;4894603;29;20006;-57
2022/06/04 00:22:58;;;;;;;;;;;14.60;99.90;;;;;;4892955;29;19915;-57
2022/06/04 00:25:24;;;;;;;;;;;14.60;99.90;;;;;;4893204;29;20526;-58
2022/06/04 00:27:50;;;;;;;;;;;14.60;99.90;;;;;;4892566;29;19990;-58
2022/06/04 00:30:15;;;;;;;;;;;14.50;99.90;;;;;;4892787;29;19943;-58
2022/06/04 00:32:41;;;;;;;;;;;14.50;99.90;;;;;;4892909;29;19999;-57
2022/06/04 00:35:07;;;;;;;;;;;14.50;99.90;;;;;;4890488;29;20375;-58
2022/06/04 00:37:33;;;;;;;;;;;14.50;99.90;;;;;;4893140;29;19927;-57
2022/06/04 00:39:59;;;;;;;;;;;14.30;99.90;;;;;;4892367;29;19959;-58
2022/06/04 00:42:25;;;;;;;;;;;14.20;99.90;;;;;;4892996;29;19911;-57
2022/06/04 00:44:57;;;;;;;;;;;14.10;99.90;;;;;;4892059;29;19922;-58
2022/06/04 00:47:26;;;;;;;;;;;14.00;99.90;;;;;;4891830;29;20394;-57
2022/06/04 00:49:51;;;;;;;;;;;14.00;99.90;;;;;;4893191;29;19911;-57
2022/06/04 00:52:17;;;;;;;;;;;14.20;99.90;;;;;;4895682;29;19915;-58
2022/06/04 00:54:43;;;;;;;;;;;14.10;99.90;;;;;;4894447;29;20001;-58
2022/06/04 00:57:18;;;;;;;;;;;14.00;99.90;;;;;;4891987;29;20011;-58
2022/06/04 00:59:44;;;;;;;;;;;14.00;99.90;;;;;;4888299;29;19963;-58
2022/06/04 01:02:30;;;;;;;;;;;14.10;99.90;;;;;;4892348;29;19923;-58
2022/06/04 01:05:04;;;;;;;;;;;13.90;99.90;;;;;;4889777;29;19974;-57
2022/06/04 01:07:49;;;;;;;;;;;13.80;99.90;;;;;;4892347;29;19915;-58
2022/06/04 01:10:27;;;;;;;;;;;13.80;99.90;;;;;;4887804;29;19911;-57
2022/06/04 01:12:55;;;;;;;;;;;13.60;99.90;;;;;;4891886;29;19911;-58
2022/06/04 01:15:21;;;;;;;;;;;13.70;99.90;;;;;;4892116;29;19915;-58
2022/06/04 01:17:46;;;;;;;;;;;13.70;99.90;;;;;;4893445;29;19922;-57
2022/06/04 01:20:17;;;;;;;;;;;13.70;99.90;;;;;;4891626;29;19911;-57
2022/06/04 01:22:46;;;;;;;;;;;13.60;99.90;;;;;;4891970;29;19911;-57
2022/06/04 01:25:31;;;;;;;;;;;13.60;99.90;;;;;;4891256;29;19920;-58
2022/06/04 01:28:04;;;;;;;;;;;13.50;99.90;;;;;;4889310;29;19962;-58
2022/06/04 01:30:34;;;;;;;;;;;13.50;99.90;;;;;;4892315;29;19950;-58
2022/06/04 01:33:18;;;;;;;;;;;13.60;99.90;;;;;;4890870;29;20379;-57
2022/06/04 01:35:53;;;;;;;;;;;13.60;99.90;;;;;;4891932;29;19915;-57
2022/06/04 01:38:34;;;;;;;;;;;13.50;99.90;;;;;;4889412;29;19915;-57
2022/06/04 01:41:03;;;;;;;;;;;13.60;99.90;;;;;;4891998;29;19907;-58
2022/06/04 01:43:31;;;;;;;;;;;13.60;99.90;;;;;;4892369;29;20388;-58
2022/06/04 01:45:58;;;;;;;;;;;13.60;99.90;;;;;;4890913;29;19911;-58
2022/06/04 01:48:25;;;;;;;;;;;13.50;99.90;;;;;;4891827;29;19914;-57
2022/06/04 01:50:52;;;;;;;;;;;13.50;99.90;;;;;;4891054;29;20010;-58
2022/06/04 01:53:19;;;;;;;;;;;13.40;99.90;;;;;;4891609;29;20002;-58
2022/06/04 01:55:54;;;;;;;;;;;13.40;99.90;;;;;;4890501;29;19978;-57
2022/06/04 01:58:32;;;;;;;;;;;13.50;99.90;;;;;;4891574;29;20401;-58
2022/06/04 02:01:00;;;;;;;;;;;13.30;99.90;;;;;;4890469;29;19915;-57
2022/06/04 02:03:29;;;;;;;;;;;13.30;99.90;;;;;;4891560;29;19934;-57
2022/06/04 02:06:07;;;;;;;;;;;13.40;99.90;;;;;;4889256;29;19930;-57
2022/06/04 02:08:38;;;;;;;;;;;13.30;99.90;;;;;;4888255;29;19907;-57
2022/06/04 02:11:09;;;;;;;;;;;13.30;99.90;;;;;;4890054;29;19908;-57
2022/06/04 02:13:36;;;;;;;;;;;13.30;99.90;;;;;;4893580;29;19914;-57
2022/06/04 02:16:05;;;;;;;;;;;13.20;99.90;;;;;;4892453;29;19915;-58
2022/06/04 02:18:30;;;;;;;;;;;13.40;99.90;;;;;;4890833;29;19926;-58
2022/06/04 02:20:56;;;;;;;;;;;13.40;99.90;;;;;;4890732;29;20377;-57
2022/06/04 02:23:21;;;;;;;;;;;13.50;99.90;;;;;;4892659;29;19954;-58
2022/06/04 02:25:47;;;;;;;;;;;13.60;99.90;;;;;;4890973;29;19983;-57
2022/06/04 02:28:13;;;;;;;;;;;13.50;99.90;;;;;;4890992;29;19957;-58
2022/06/04 02:30:43;;;;;;;;;;;13.50;99.90;;;;;;4890774;29;20439;-58
2022/06/04 02:33:14;;;;;;;;;;;13.50;99.90;;;;;;4890783;29;19968;-58
2022/06/04 02:35:48;;;;;;;;;;;13.50;99.90;;;;;;4886239;29;20006;-57
2022/06/04 02:38:24;;;;;;;;;;;13.40;99.90;;;;;;4890652;29;19915;-58
2022/06/04 02:40:50;;;;;;;;;;;13.40;99.90;;;;;;4887922;29;19911;-57
2022/06/04 02:43:17;;;;;;;;;;;13.20;99.90;;;;;;4890416;29;19918;-58
2022/06/04 02:45:54;;;;;;;;;;;13.30;99.90;;;;;;4890731;29;19945;-57
2022/06/04 02:48:30;;;;;;;;;;;13.20;99.90;;;;;;4890891;29;19918;-57
2022/06/04 02:50:57;;;;;;;;;;;13.20;99.90;;;;;;4888268;29;20412;-57
2022/06/04 02:53:24;;;;;;;;;;;13.00;99.90;;;;;;4892992;29;19959;-58
2022/06/04 02:55:53;;;;;;;;;;;13.00;99.90;;;;;;4893003;29;20320;-57
2022/06/04 02:58:20;;;;;;;;;;;12.90;99.90;;;;;;4890813;29;19920;-58
2022/06/04 03:00:47;;;;;;;;;;;12.90;99.90;;;;;;4888754;29;19942;-56
2022/06/04 03:03:13;;;;;;;;;;;12.90;99.90;;;;;;4891423;29;19916;-57
2022/06/04 03:05:49;;;;;;;;;;;13.00;99.90;;;;;;4882676;29;19927;-57
2022/06/04 03:08:14;;;;;;;;;;;12.90;99.90;;;;;;4890013;29;19918;-57
2022/06/04 03:10:40;;;;;;;;;;;13.00;99.90;;;;;;4890463;29;19915;-56
2022/06/04 03:13:06;;;;;;;;;;;13.00;99.90;;;;;;4890065;29;19911;-58
2022/06/04 03:15:31;;;;;;;;;;;12.90;99.90;;;;;;4890160;29;19916;-57
2022/06/04 03:17:57;;;;;;;;;;;12.90;99.90;;;;;;4891440;29;19915;-57
2022/06/04 03:20:24;;;;;;;;;;;12.80;99.90;;;;;;4890226;29;19911;-58
2022/06/04 03:22:50;;;;;;;;;;;12.80;99.90;;;;;;4892682;29;19911;-57
2022/06/04 03:25:16;;;;;;;;;;;12.80;99.90;;;;;;4892997;29;19966;-57
2022/06/04 03:27:41;;;;;;;;;;;12.80;99.90;;;;;;4893511;29;19919;-57
2022/06/04 03:30:07;;;;;;;;;;;12.80;99.90;;;;;;4890990;29;19970;-57
2022/06/04 03:32:33;;;;;;;;;;;12.70;99.90;;;;;;4894878;29;19911;-57
2022/06/04 03:34:59;;;;;;;;;;;12.70;99.90;;;;;;4894660;29;19962;-57
2022/06/04 03:37:24;;;;;;;;;;;12.70;99.90;;;;;;4896115;29;20009;-58
2022/06/04 03:39:50;;;;;;;;;;;12.60;99.90;;;;;;4894149;29;19918;-58
2022/06/04 03:42:15;;;;;;;;;;;12.70;99.90;;;;;;4893467;29;20354;-58
2022/06/04 03:44:46;;;;;;;;;;;12.70;99.90;;;;;;4895087;29;20018;-58
2022/06/04 03:47:12;;;;;;;;;;;12.70;99.90;;;;;;4893050;29;19954;-57
2022/06/04 03:49:37;;;;;;;;;;;12.80;99.90;;;;;;4893952;29;19997;-58
2022/06/04 03:52:03;;;;;;;;;;;12.70;99.90;;;;;;4893269;29;20265;-58
2022/06/04 03:59:57;;;;;;;;;;;12.80;99.90;;;;;;4893389;29;20336;-56
2022/06/04 04:02:23;;;;;;;;;;;12.80;99.90;;;;;;4893192;29;19915;-57
2022/06/04 04:04:48;;;;;;;;;;;12.90;99.90;;;;;;4891640;29;19934;-57
2022/06/04 04:07:14;;;;;;;;;;;13.00;99.90;;;;;;4893213;29;20014;-57
2022/06/04 04:09:40;;;;;;;;;;;13.10;99.90;;;;;;4893392;29;19911;-57
2022/06/04 04:12:05;;;;;;;;;;;13.20;99.90;;;;;;4893101;29;20006;-58
2022/06/04 04:14:31;;;;;;;;;;;13.10;99.90;;;;;;4895563;29;20029;-57
2022/06/04 04:16:56;;;;;;;;;;;13.20;99.90;;;;;;4895812;29;20354;-58
2022/06/04 04:19:26;;;;;;;;;;;13.10;99.90;;;;;;4893388;29;19919;-57
2022/06/04 04:21:51;;;;;;;;;;;13.20;99.90;;;;;;4893228;29;19911;-57
2022/06/04 04:24:17;;;;;;;;;;;13.10;99.90;;;;;;4894167;29;19912;-57
2022/06/04 04:26:42;;;;;;;;;;;13.10;99.90;;;;;;4893214;29;19911;-58
2022/06/04 04:29:08;;;;;;;;;;;13.20;99.90;;;;;;4892546;29;19918;-57
2022/06/04 04:31:34;;;;;;;;;;;13.20;99.90;;;;;;4892995;29;19911;-57
2022/06/04 04:34:00;;;;;;;;;;;13.10;99.90;;;;;;4890744;29;20292;-58
2022/06/04 04:36:30;;;;;;;;;;;13.20;99.90;;;;;;4892932;29;19918;-58
2022/06/04 04:38:58;;;;;;;;;;;13.30;99.90;;;;;;4893012;29;19922;-57
2022/06/04 04:41:24;;;;;;;;;;;13.40;99.90;;;;;;4889907;29;19950;-58
2022/06/04 04:43:49;;;;;;;;;;;13.30;99.90;;;;;;4892832;29;19967;-57
2022/06/04 04:46:15;;;;;;;;;;;13.40;99.90;;;;;;4892138;29;20275;-58
2022/06/04 04:48:42;;;;;;;;;;;13.50;99.90;;;;;;4892981;29;19986;-57
2022/06/04 04:51:19;;;;;;;;;;;13.40;99.90;;;;;;4891006;29;20435;-57
2022/06/04 04:53:46;;;;;;;;;;;13.50;99.90;;;;;;4890328;29;19914;-57
2022/06/04 04:56:13;;;;;;;;;;;13.70;99.90;;;;;;4894770;29;19934;-57
2022/06/04 04:58:39;;;;;;;;;;;13.50;99.90;;;;;;4894642;29;19923;-57
2022/06/04 05:01:04;;;;;;;;;;;13.60;99.90;;;;;;4891893;29;20002;-57
2022/06/04 05:03:30;;;;;;;;;;;13.60;99.90;;;;;;4892295;29;19963;-57
2022/06/04 05:05:59;;;;;;;;;;;13.80;99.90;;;;;;4891938;29;19919;-57
2022/06/04 05:08:25;;;;;;;;;;;13.80;99.90;;;;;;4888488;29;19911;-57
2022/06/04 05:10:50;;;;;;;;;;;13.90;99.90;;;;;;4891298;29;19967;-58
2022/06/04 05:13:16;;;;;;;;;;;13.90;99.90;;;;;;4891800;29;19911;-57
2022/06/04 05:15:41;;;;;;;;;;;13.80;99.90;;;;;;4892261;29;19994;-57
2022/06/04 05:18:07;;;;;;;;;;;14.00;99.90;;;;;;4893943;29;19922;-57
2022/06/04 05:20:34;;;;;;;;;;;14.00;99.90;;;;;;4892171;29;20392;-58
2022/06/04 05:22:59;;;;;;;;;;;14.10;99.90;;;;;;4892465;29;19918;-58
2022/06/04 05:25:25;;;;;;;;;;;14.30;99.90;;;;;;4891642;29;19911;-58
2022/06/04 05:27:50;;;;;;;;;;;14.30;99.90;;;;;;4892094;29;19959;-57
2022/06/04 05:30:16;;;;;;;;;;;14.30;99.90;;;;;;4891480;29;19958;-57
2022/06/04 05:32:42;;;;;;;;;;;14.30;99.90;;;;;;4892126;29;19922;-57
2022/06/04 05:35:08;;;;;;;;;;;14.40;99.90;;;;;;4891188;29;19911;-57
2022/06/04 05:37:34;;;;;;;;;;;14.70;99.90;;;;;;4894317;29;20022;-58
2022/06/04 05:39:59;;;;;;;;;;;14.90;99.90;;;;;;4893318;29;19958;-58
2022/06/04 05:42:25;;;;;;;;;;;14.90;99.90;;;;;;4891414;29;19912;-58
2022/06/04 05:44:51;;;;;;;;;;;15.30;99.90;;;;;;4891967;29;19919;-57
2022/06/04 05:47:17;;;;;;;;;;;15.60;99.90;;;;;;4891504;29;19934;-57
2022/06/04 05:49:43;;;;;;;;;;;15.70;99.90;;;;;;4891731;29;19908;-57
2022/06/04 05:52:08;;;;;;;;;;;15.40;99.90;;;;;;4891000;29;20390;-57
2022/06/04 05:54:34;;;;;;;;;;;15.20;99.90;;;;;;4891925;29;19911;-58
2022/06/04 05:56:59;;;;;;;;;;;15.30;99.90;;;;;;4891504;29;19911;-58
2022/06/04 05:59:25;;;;;;;;;;;15.20;99.90;;;;;;4890997;29;19915;-58
2022/06/04 06:01:51;;;;;;;;;;;15.40;99.90;;;;;;4891435;29;19942;-58
2022/06/04 06:04:17;;;;;;;;;;;15.00;99.90;;;;;;4888907;29;19927;-57
2022/06/04 06:06:45;;;;;;;;;;;15.10;99.90;;;;;;4891588;29;20623;-58
2022/06/04 06:09:11;;;;;;;;;;;15.20;99.90;;;;;;4888504;29;19911;-58
2022/06/04 06:11:36;;;;;;;;;;;15.30;99.90;;;;;;4891426;29;19911;-57
2022/06/04 06:14:02;;;;;;;;;;;15.20;99.90;;;;;;4891291;29;20283;-58
2022/06/04 06:16:29;;;;;;;;;;;15.50;99.90;;;;;;4891705;29;19907;-58
2022/06/04 06:18:55;;;;;;;;;;;15.60;99.90;;;;;;4894549;29;19915;-58
2022/06/04 06:21:24;;;;;;;;;;;15.50;99.90;;;;;;4891443;29;20295;-58
2022/06/04 06:23:50;;;;;;;;;;;16.10;99.90;;;;;;4891114;29;20014;-57
2022/06/04 06:26:20;;;;;;;;;;;16.20;99.90;;;;;;4892192;29;19907;-57
2022/06/04 06:28:46;;;;;;;;;;;16.10;99.90;;;;;;4891197;29;20339;-57
2022/06/04 06:31:13;;;;;;;;;;;16.00;99.90;;;;;;4890434;29;19915;-57
2022/06/04 06:33:39;;;;;;;;;;;16.50;99.90;;;;;;4891160;29;19994;-58
2022/06/04 06:36:06;;;;;;;;;;;16.30;99.90;;;;;;4888903;29;20010;-58
2022/06/04 06:38:32;;;;;;;;;;;16.40;99.90;;;;;;4890961;29;19971;-58
2022/06/04 06:40:58;;;;;;;;;;;16.70;99.90;;;;;;4891008;29;20003;-57
2022/06/04 06:43:33;;;;;;;;;;;17.00;99.90;;;;;;4890375;29;20070;-57
2022/06/04 06:46:09;;;;;;;;;;;17.10;99.90;;;;;;4890845;29;20010;-58
2022/06/04 06:48:36;;;;;;;;;;;17.30;99.90;;;;;;4889166;29;19912;-58
2022/06/04 06:51:06;;;;;;;;;;;16.90;99.90;;;;;;4891150;29;19923;-57
2022/06/04 06:53:32;;;;;;;;;;;17.30;99.90;;;;;;4890966;29;20006;-57
2022/06/04 06:55:58;;;;;;;;;;;17.90;99.90;;;;;;4892687;29;20355;-57
2022/06/04 06:58:23;;;;;;;;;;;17.90;99.90;;;;;;4896731;29;19947;-57
2022/06/04 07:00:51;;;;;;;;;;;17.80;99.90;;;;;;4896364;29;19943;-58
2022/06/04 07:03:16;;;;;;;;;;;17.40;99.90;;;;;;4890664;29;20033;-57
2022/06/04 07:05:42;;;;;;;;;;;17.30;99.90;;;;;;4892917;29;20013;-58
2022/06/04 07:08:07;;;;;;;;;;;17.10;99.90;;;;;;4895100;29;19911;-58
2022/06/04 07:10:33;;;;;;;;;;;17.40;99.90;;;;;;4894726;29;19919;-57
2022/06/04 07:12:58;;;;;;;;;;;17.40;99.90;;;;;;4894677;29;19911;-58
2022/06/04 07:15:24;;;;;;;;;;;17.50;99.90;;;;;;4882300;29;19911;-58
2022/06/04 07:17:49;;;;;;;;;;;17.70;99.90;;;;;;4899109;29;19998;-58
2022/06/04 07:20:15;;;;;;;;;;;17.80;99.90;;;;;;4893856;29;19911;-58
2022/06/04 07:22:41;;;;;;;;;;;18.00;99.90;;;;;;4894199;29;20290;-57
2022/06/04 07:25:06;;;;;;;;;;;18.20;99.90;;;;;;4894560;29;19991;-57
2022/06/04 07:27:32;;;;;;;;;;;18.60;99.90;;;;;;4894558;29;20015;-58
2022/06/04 07:29:57;;;;;;;;;;;18.20;99.90;;;;;;4894329;29;20352;-57
2022/06/04 07:32:23;;;;;;;;;;;18.10;99.90;;;;;;4893401;29;19958;-57
2022/06/04 07:34:48;;;;;;;;;;;18.20;99.90;;;;;;4892489;29;20485;-57
2022/06/04 07:37:14;;;;;;;;;;;18.10;99.90;;;;;;4894894;29;20291;-58
2022/06/04 07:39:39;;;;;;;;;;;18.40;99.90;;;;;;4896736;29;20276;-58
2022/06/04 07:42:05;;;;;;;;;;;18.50;99.90;;;;;;4895570;29;20699;-57
2022/06/04 07:44:30;;;;;;;;;;;18.50;99.90;;;;;;4893553;29;19911;-58
2022/06/04 07:46:56;;;;;;;;;;;18.80;99.90;;;;;;4894263;29;19908;-58
2022/06/04 07:49:22;;;;;;;;;;;18.80;99.90;;;;;;4894070;29;19915;-58
2022/06/04 07:51:48;;;;;;;;;;;19.20;99.90;;;;;;4893605;29;19979;-58
2022/06/04 07:54:14;;;;;;;;;;;18.50;99.90;;;;;;4893246;29;20426;-58
2022/06/04 07:56:40;;;;;;;;;;;19.60;99.90;;;;;;4893733;29;19907;-58
2022/06/04 07:59:07;;;;;;;;;;;19.40;99.90;;;;;;4893654;29;19923;-57
2022/06/04 08:01:32;;;;;;;;;;;19.40;99.90;;;;;;4892813;29;19911;-58
2022/06/04 08:03:58;;;;;;;;;;;19.60;99.90;;;;;;4891675;29;19946;-58
2022/06/04 08:06:24;;;;;;;;;;;20.00;99.90;;;;;;4892940;29;20399;-58
2022/06/04 08:08:50;;;;;;;;;;;20.10;99.90;;;;;;4892723;29;19911;-57
2022/06/04 08:11:31;;;;;;;;;;;20.40;99.90;;;;;;4893144;29;19911;-58
2022/06/04 08:13:58;;;;;;;;;;;20.80;99.90;;;;;;4889987;29;19998;-58
2022/06/04 08:16:24;;;;;;;;;;;20.30;99.90;;;;;;4892730;29;19912;-58
2022/06/04 08:18:49;;;;;;;;;;;20.30;99.90;;;;;;4896554;29;19966;-58
2022/06/04 08:21:15;;;;;;;;;;;20.00;99.90;;;;;;4895366;29;19965;-58
2022/06/04 08:23:43;;;;;;;;;;;19.90;99.90;;;;;;4893607;29;20058;-58
2022/06/04 08:26:09;;;;;;;;;;;20.20;99.90;;;;;;4893344;29;19912;-58
2022/06/04 08:28:35;;;;;;;;;;;20.40;99.90;;;;;;4894550;29;19911;-58
2022/06/04 08:31:03;;;;;;;;;;;20.60;99.90;;;;;;4893153;29;19918;-58
2022/06/04 08:33:29;;;;;;;;;;;20.40;99.90;;;;;;4892740;29;19911;-58
2022/06/04 08:35:54;;;;;;;;;;;20.40;99.90;;;;;;4891352;29;20261;-57
2022/06/04 08:38:20;;;;;;;;;;;20.70;99.90;;;;;;4892467;29;19942;-57
2022/06/04 08:40:48;;;;;;;;;;;20.90;99.90;;;;;;4893088;29;20491;-57
2022/06/04 08:43:13;;;;;;;;;;;20.20;99.90;;;;;;4892114;29;20679;-58
2022/06/04 08:45:39;;;;;;;;;;;19.70;99.90;;;;;;4892881;29;19947;-58
2022/06/04 08:48:12;;;;;;;;;;;20.30;99.90;;;;;;4892912;29;19911;-57
2022/06/04 08:50:37;;;;;;;;;;;20.60;99.90;;;;;;4892947;29;19959;-58
2022/06/04 08:53:03;;;;;;;;;;;20.70;99.90;;;;;;4893107;29;20009;-58
2022/06/04 08:58:52;;;;;;;;;;;21.40;99.90;;;;;;4894203;29;19969;-58
2022/06/04 09:01:20;;;;;;;;;;;21.00;99.90;;;;;;4894539;29;20360;-58
2022/06/04 09:03:58;;;;;;;;;;;21.30;99.90;;;;;;4892936;29;20431;-58
2022/06/04 09:06:28;;;;;;;;;;;20.60;99.90;;;;;;4891970;29;20459;-57
2022/06/04 09:09:04;;;;;;;;;;;20.10;99.90;;;;;;4894530;29;19908;-58
2022/06/04 09:11:48;;;;;;;;;;;21.00;99.90;;;;;;4889143;29;19912;-58
2022/06/04 09:14:30;;;;;;;;;;;21.40;99.90;;;;;;4888984;29;19927;-58
2022/06/04 09:17:00;;;;;;;;;;;21.30;99.90;;;;;;4894646;29;19918;-58
2022/06/04 09:19:27;;;;;;;;;;;21.90;99.90;;;;;;4890677;29;19951;-57
2022/06/04 09:21:53;;;;;;;;;;;22.10;99.90;;;;;;4892237;29;20551;-58
2022/06/04 09:24:19;;;;;;;;;;;21.90;99.90;;;;;;4891812;29;19911;-58
2022/06/04 09:26:50;;;;;;;;;;;21.30;99.90;;;;;;4892089;29;19918;-58
2022/06/04 09:29:29;;;;;;;;;;;21.30;99.90;;;;;;4891741;29;19911;-57
2022/06/04 09:32:09;;;;;;;;;;;21.10;99.90;;;;;;4889370;29;19998;-58
2022/06/04 09:34:37;;;;;;;;;;;22.10;99.90;;;;;;4888368;29;20360;-58
2022/06/04 09:37:03;;;;;;;;;;;23.10;99.90;;;;;;4892030;29;20448;-58
2022/06/04 09:39:30;;;;;;;;;;;23.20;99.90;;;;;;4892993;29;19915;-58
2022/06/04 09:41:57;;;;;;;;;;;23.70;99.90;;;;;;4894263;29;19955;-57
2022/06/04 09:44:24;;;;;;;;;;;23.50;99.90;;;;;;4892206;29;19918;-58
2022/06/04 09:46:53;;;;;;;;;;;23.40;99.90;;;;;;4891692;29;19911;-58
2022/06/04 09:49:24;;;;;;;;;;;23.80;99.90;;;;;;4892350;29;20356;-58
2022/06/04 09:51:50;;;;;;;;;;;23.80;99.80;;;;;;4891810;29;19911;-58
2022/06/04 09:54:20;;;;;;;;;;;24.00;99.90;;;;;;4891151;29;19907;-58
2022/06/04 09:56:49;;;;;;;;;;;23.70;99.80;;;;;;4891951;29;19911;-58
2022/06/04 09:59:24;;;;;;;;;;;22.80;99.90;;;;;;4890979;29;20005;-58
2022/06/04 10:01:54;;;;;;;;;;;24.40;99.90;;;;;;4888685;29;20394;-58
2022/06/04 10:04:20;;;;;;;;;;;24.20;99.20;;;;;;4889294;29;19950;-58
2022/06/04 10:06:46;;;;;;;;;;;23.70;99.30;;;;;;4891321;29;19915;-59
2022/06/04 10:12:03;;;;;;;;;;;24.00;99.90;;;;;;4890610;29;20055;-58
2022/06/04 10:14:29;;;;;;;;;;;23.40;99.90;;;;;;4890808;29;19915;-58
2022/06/04 10:16:55;;;;;;;;;;;23.60;99.90;;;;;;4892498;29;19998;-58
2022/06/04 10:19:22;;;;;;;;;;;23.50;99.50;;;;;;4891482;29;19991;-59
2022/06/04 10:21:49;;;;;;;;;;;23.20;98.90;;;;;;4893816;29;19908;-58
2022/06/04 10:24:20;;;;;;;;;;;22.60;99.90;;;;;;4893131;29;20010;-57
2022/06/04 10:27:05;;;;;;;;;;;22.60;99.90;;;;;;4891346;29;19911;-58
2022/06/04 10:29:42;;;;;;;;;;;22.90;99.90;;;;;;4889864;29;19918;-59
2022/06/04 10:32:08;;;;;;;;;;;23.40;99.90;;;;;;4888468;29;19978;-58
2022/06/04 10:34:45;;;;;;;;;;;23.40;99.60;;;;;;4888870;29;20371;-58
2022/06/04 10:37:29;;;;;;;;;;;23.10;99.90;;;;;;4891012;29;19911;-58
2022/06/04 10:40:04;;;;;;;;;;;22.60;99.90;;;;;;4889556;29;20298;-59
2022/06/04 10:42:36;;;;;;;;;;;23.80;99.90;;;;;;4888978;29;19911;-58
2022/06/04 10:45:01;;;;;;;;;;;23.80;99.80;;;;;;4890918;29;20296;-58
2022/06/04 10:47:34;;;;;;;;;;;24.20;98.70;;;;;;4890082;29;20018;-58
2022/06/04 10:50:02;;;;;;;;;;;25.20;97.90;;;;;;4891274;29;19918;-58
2022/06/04 10:52:38;;;;;;;;;;;24.50;98.50;;;;;;4890568;29;20372;-58
2022/06/04 10:55:30;;;;;;;;;;;23.80;98.90;;;;;;4891111;29;19918;-58
2022/06/04 10:58:16;;;;;;;;;;;23.80;98.80;;;;;;4876017;29;19998;-58
2022/06/04 11:00:44;;;;;;;;;;;23.90;98.10;;;;;;4889157;29;19929;-57
2022/06/04 11:03:42;;;;;;;;;;;23.50;99.40;;;;;;4893412;29;19962;-58
2022/06/04 11:06:12;;;;;;;;;;;23.30;99.90;;;;;;4868954;29;19934;-59
2022/06/04 11:08:41;;;;;;;;;;;24.40;98.70;;;;;;4887130;29;20395;-58
2022/06/04 11:11:13;;;;;;;;;;;25.00;97.50;;;;;;4892040;29;19915;-58
2022/06/04 11:13:42;;;;;;;;;;;24.70;97.00;;;;;;4890325;29;19907;-59
2022/06/04 11:16:14;;;;;;;;;;;24.40;97.00;;;;;;4890443;29;19915;-59
2022/06/04 11:18:42;;;;;;;;;;;24.30;97.50;;;;;;4890990;29;19970;-58
2022/06/04 11:21:19;;;;;;;;;;;24.00;97.20;;;;;;4890587;29;20447;-58
2022/06/04 11:23:47;;;;;;;;;;;23.80;97.30;;;;;;4890577;29;20542;-59
2022/06/04 11:26:21;;;;;;;;;;;25.10;97.00;;;;;;4890644;29;19911;-58
2022/06/04 11:28:47;;;;;;;;;;;26.80;96.00;;;;;;4890747;29;19918;-59
2022/06/04 11:31:26;;;;;;;;;;;26.20;95.10;;;;;;4890324;29;19911;-59
2022/06/04 11:34:10;;;;;;;;;;;26.90;94.00;;;;;;4886379;29;19929;-58
2022/06/04 11:37:00;;;;;;;;;;;26.50;93.60;;;;;;4889693;29;19917;-59
2022/06/04 11:39:26;;;;;;;;;;;26.40;93.20;;;;;;4889929;29;19975;-58
2022/06/04 11:41:54;;;;;;;;;;;26.10;94.30;;;;;;4892192;29;19915;-58
2022/06/04 11:44:31;;;;;;;;;;;25.70;93.20;;;;;;4895301;29;19919;-58
2022/06/04 11:47:03;;;;;;;;;;;25.20;94.30;;;;;;4894797;29;19916;-58
2022/06/04 11:49:41;;;;;;;;;;;25.50;94.70;;;;;;4890236;29;20364;-59
2022/06/04 11:52:15;;;;;;;;;;;25.50;94.50;;;;;;4895000;29;19921;-58
2022/06/04 11:54:44;;;;;;;;;;;25.10;94.90;;;;;;4893432;29;20375;-58
2022/06/04 11:57:28;;;;;;;;;;;25.00;95.10;;;;;;4893612;29;19911;-58
2022/06/04 12:00:03;;;;;;;;;;;24.40;95.70;;;;;;4890467;29;19958;-58
2022/06/04 12:02:45;;;;;;;;;;;25.50;95.90;;;;;;4892890;29;19983;-58
2022/06/04 12:05:23;;;;;;;;;;;26.50;94.00;;;;;;4889249;29;19994;-59
2022/06/04 12:07:51;;;;;;;;;;;25.90;94.30;;;;;;4893581;29;20252;-58
2022/06/04 12:10:26;;;;;;;;;;;26.50;94.60;;;;;;4893678;29;19962;-58
2022/06/04 12:12:57;;;;;;;;;;;27.20;93.60;;;;;;4893461;29;19922;-58
2022/06/04 12:15:38;;;;;;;;;;;28.60;92.60;;;;;;4893051;29;19914;-58
2022/06/04 12:18:15;;;;;;;;;;;28.40;91.50;;;;;;4895391;29;19943;-58
2022/06/04 12:26:37;;;;;;;;;;;30.70;89.80;;;;;;4895075;29;19935;-58
2022/06/04 12:29:22;;;;;;;;;;;29.50;87.30;;;;;;4893261;29;19915;-58
2022/06/04 12:31:58;;;;;;;;;;;28.60;90.20;;;;;;4893540;29;19908;-59
2022/06/04 12:34:26;;;;;;;;;;;28.20;90.30;;;;;;4891197;29;20569;-59
2022/06/04 12:36:52;;;;;;;;;;;28.90;89.30;;;;;;4893038;29;19922;-59
2022/06/04 12:39:21;;;;;;;;;;;29.90;89.50;;;;;;4892818;29;19963;-59
2022/06/04 12:41:57;;;;;;;;;;;29.50;86.70;;;;;;4892908;29;19934;-58
2022/06/04 12:44:24;;;;;;;;;;;29.30;87.30;;;;;;4892390;29;19932;-58
2022/06/04 12:46:51;;;;;;;;;;;27.90;88.60;;;;;;4892277;29;19911;-58
2022/06/04 12:49:35;;;;;;;;;;;28.50;89.20;;;;;;4892929;29;19908;-58
2022/06/04 12:52:01;;;;;;;;;;;29.00;88.30;;;;;;4892735;29;19911;-59
2022/06/04 12:54:26;;;;;;;;;;;28.90;88.40;;;;;;4892062;29;19907;-58
2022/06/04 12:56:57;;;;;;;;;;;29.30;86.30;;;;;;4892551;29;20002;-58
2022/06/04 12:59:25;;;;;;;;;;;27.00;89.60;;;;;;4892405;29;20010;-59
2022/06/04 13:01:50;;;;;;;;;;;26.60;90.00;;;;;;4892725;29;19994;-59
2022/06/04 13:04:16;;;;;;;;;;;26.50;90.50;;;;;;4893330;29;20567;-58
2022/06/04 13:06:49;;;;;;;;;;;28.50;88.80;;;;;;4894241;29;19915;-58
2022/06/04 13:09:17;;;;;;;;;;;29.50;87.60;;;;;;4892318;29;19907;-58
2022/06/04 13:11:48;;;;;;;;;;;29.30;88.50;;;;;;4892024;29;20443;-58
2022/06/04 13:14:21;;;;;;;;;;;29.10;86.50;;;;;;4893911;29;19918;-58
2022/06/04 13:16:49;;;;;;;;;;;30.80;84.80;;;;;;4889313;29;19941;-58
2022/06/04 13:19:20;;;;;;;;;;;30.80;84.50;;;;;;4892152;29;19915;-59
2022/06/04 13:21:48;;;;;;;;;;;30.90;82.90;;;;;;4891765;29;19912;-58
2022/06/04 13:24:16;;;;;;;;;;;31.50;81.20;;;;;;4892271;29;20561;-58
2022/06/04 13:27:01;;;;;;;;;;;31.80;79.40;;;;;;4891905;29;19915;-59
2022/06/04 13:29:28;;;;;;;;;;;30.10;82.40;;;;;;4891504;29;19961;-58
2022/06/04 13:31:55;;;;;;;;;;;29.90;83.20;;;;;;4892078;29;19915;-58
2022/06/04 13:34:23;;;;;;;;;;;30.70;80.30;;;;;;4890190;29;19923;-59
2022/06/04 13:36:54;;;;;;;;;;;31.30;79.70;;;;;;4891538;29;19950;-59
2022/06/04 13:39:21;;;;;;;;;;;31.20;80.10;;;;;;4892099;29;20479;-59
2022/06/04 13:42:01;;;;;;;;;;;30.20;81.60;;;;;;4891463;29;20489;-58
2022/06/04 13:44:26;;;;;;;;;;;31.50;79.70;;;;;;4891504;29;19907;-58
2022/06/04 13:46:52;;;;;;;;;;;32.10;77.90;;;;;;4894160;29;19978;-58
2022/06/04 13:49:23;;;;;;;;;;;32.20;76.10;;;;;;4892431;29;19927;-57
2022/06/04 13:51:54;;;;;;;;;;;32.80;75.60;;;;;;4890959;29;19959;-59
2022/06/04 13:54:24;;;;;;;;;;;33.90;74.70;;;;;;4893306;29;19923;-59
2022/06/04 13:56:50;;;;;;;;;;;34.10;72.10;;;;;;4890939;29;19912;-58
2022/06/04 13:59:24;;;;;;;;;;;31.40;74.60;;;;;;4891231;29;19915;-58
2022/06/04 14:01:54;;;;;;;;;;;30.20;76.30;;;;;;4887399;29;20007;-58
2022/06/04 14:07:13;;;;;;;;;;;32.10;74.80;;;;;;4887863;29;19917;-58
2022/06/04 14:09:49;;;;;;;;;;;32.20;74.20;;;;;;4889889;29;20423;-58
2022/06/04 14:12:16;;;;;;;;;;;32.10;74.80;;;;;;4891032;29;19918;-58
2022/06/04 14:14:58;;;;;;;;;;;33.20;73.40;;;;;;4890783;29;19963;-59
2022/06/04 14:17:41;;;;;;;;;;;33.60;73.60;;;;;;4893781;29;19919;-59
2022/06/04 14:20:23;;;;;;;;;;;32.80;72.40;;;;;;4889726;29;19915;-59
2022/06/04 14:23:07;;;;;;;;;;;32.40;73.50;;;;;;4888571;29;19961;-58
2022/06/04 14:25:33;;;;;;;;;;;31.60;73.80;;;;;;4886112;29;19912;-58
2022/06/04 14:28:07;;;;;;;;;;;32.10;72.80;;;;;;4893542;29;19930;-58
2022/06/04 14:30:39;;;;;;;;;;;32.00;71.60;;;;;;4890647;29;19971;-58
2022/06/04 14:33:15;;;;;;;;;;;31.10;73.00;;;;;;4891171;29;19966;-58
2022/06/04 14:35:41;;;;;;;;;;;31.00;72.60;;;;;;4887740;29;19950;-58
2022/06/04 14:38:11;;;;;;;;;;;31.90;74.40;;;;;;4891116;29;19946;-58
2022/06/04 14:40:40;;;;;;;;;;;32.40;72.10;;;;;;4890524;29;20011;-58
2022/06/04 14:43:17;;;;;;;;;;;32.20;72.30;;;;;;4890911;29;19918;-58
2022/06/04 14:46:03;;;;;;;;;;;33.00;72.30;;;;;;4890565;29;19911;-59
2022/06/04 14:48:34;;;;;;;;;;;33.00;71.30;;;;;;4865519;29;19911;-59
2022/06/04 14:51:10;;;;;;;;;;;32.50;70.60;;;;;;4891071;29;19950;-58
2022/06/04 14:53:36;;;;;;;;;;;30.90;73.30;;;;;;4889301;29;19923;-58